createdAt,value
2017-11-18T00:06:31.738Z,0
2017-11-18T00:16:31.805Z,0
2017-11-18T00:26:31.739Z,0
2017-11-18T00:36:31.690Z,0
2017-11-18T00:46:31.786Z,0
2017-11-18T00:56:31.710Z,0
2017-11-18T01:06:31.832Z,0
2017-11-18T01:16:31.797Z,0
2017-11-18T01:26:31.830Z,0
2017-11-18T01:36:31.786Z,0
2017-11-18T01:46:31.991Z,0
2017-11-18T01:56:31.797Z,0
2017-11-18T02:06:31.953Z,0
2017-11-18T02:16:32.177Z,0
2017-11-18T02:26:31.924Z,0
2017-11-18T02:36:31.852Z,0
2017-11-18T02:46:31.860Z,0
2017-11-18T02:56:31.946Z,0
2017-11-18T03:06:32.201Z,0
2017-11-18T03:16:31.891Z,0
2017-11-18T03:26:31.907Z,0
2017-11-18T03:36:31.897Z,0
2017-11-18T03:46:31.933Z,0
2017-11-18T03:56:31.947Z,0
2017-11-18T04:06:31.987Z,0
2017-11-18T04:16:32.767Z,0
2017-11-18T04:26:32.292Z,0
2017-11-18T04:36:32.171Z,0
2017-11-18T04:46:31.971Z,0
2017-11-18T04:56:31.951Z,0
2017-11-18T05:06:32.004Z,0
2017-11-18T05:16:32.064Z,0
2017-11-18T05:26:32.121Z,0
2017-11-18T05:36:32.070Z,0
2017-11-18T05:46:32.049Z,0
2017-11-18T05:56:32.020Z,0
2017-11-18T06:06:32.033Z,0
2017-11-18T06:16:32.022Z,0
2017-11-18T06:26:32.157Z,0
2017-11-18T06:36:32.060Z,0
2017-11-18T06:46:32.006Z,0
2017-11-18T06:56:32.051Z,0
2017-11-18T07:06:32.050Z,0
2017-11-18T07:16:32.091Z,0
2017-11-18T07:26:32.109Z,5
2017-11-18T07:36:32.111Z,10
2017-11-18T07:46:32.098Z,15
2017-11-18T07:56:32.075Z,15
2017-11-18T08:06:32.146Z,15
2017-11-18T08:16:32.193Z,20
2017-11-18T08:26:32.087Z,20
2017-11-18T08:36:32.179Z,20
2017-11-18T08:46:32.182Z,30
2017-11-18T08:56:32.188Z,35
2017-11-18T09:06:32.808Z,40
2017-11-18T09:16:32.172Z,40
2017-11-18T09:26:32.275Z,50
2017-11-18T09:36:32.230Z,55
2017-11-18T09:46:32.540Z,55
2017-11-18T09:56:32.332Z,75
2017-11-18T10:06:32.254Z,65
2017-11-18T10:16:32.241Z,75
2017-11-18T10:26:32.325Z,95
2017-11-18T10:36:32.222Z,90
2017-11-18T10:46:32.212Z,90
2017-11-18T10:56:32.259Z,95
2017-11-18T11:06:32.343Z,70
2017-11-18T11:16:32.668Z,95
2017-11-18T11:26:33.178Z,75
2017-11-18T11:36:33.056Z,115
2017-11-18T11:46:32.451Z,125
2017-11-18T11:56:32.519Z,85
2017-11-18T12:06:32.501Z,55
2017-11-18T12:16:32.517Z,40
2017-11-18T12:26:32.483Z,20
2017-11-18T12:36:32.356Z,25
2017-11-18T12:46:32.426Z,70
2017-11-18T12:56:32.419Z,30
2017-11-18T13:06:32.374Z,55
2017-11-18T13:16:32.461Z,60
2017-11-18T13:26:32.426Z,90
2017-11-18T13:36:32.365Z,55
2017-11-18T13:46:32.451Z,60
2017-11-18T13:56:32.486Z,35
2017-11-18T14:06:32.659Z,10
2017-11-18T14:16:32.471Z,5
2017-11-18T14:26:35.224Z,5
2017-11-18T14:36:32.438Z,5
2017-11-18T14:46:33.535Z,15
2017-11-18T14:56:33.432Z,10
2017-11-18T15:06:32.501Z,5
2017-11-18T15:16:38.320Z,0
2017-11-18T15:26:32.464Z,0
2017-11-18T15:36:32.473Z,0
2017-11-18T15:46:33.640Z,0
2017-11-18T15:56:32.493Z,0
2017-11-18T16:06:33.668Z,0
2017-11-18T16:16:32.631Z,0
2017-11-18T16:26:33.497Z,0
2017-11-18T16:36:34.486Z,0
2017-11-18T16:46:38.622Z,0
2017-11-18T16:56:37.453Z,0
2017-11-18T17:06:32.552Z,0
2017-11-18T17:16:32.517Z,0
2017-11-18T17:26:38.183Z,0
2017-11-18T17:36:34.808Z,0
2017-11-18T17:46:32.687Z,0
2017-11-18T17:56:32.680Z,0
2017-11-18T18:06:32.911Z,0
2017-11-18T18:16:32.852Z,0
2017-11-18T18:26:32.853Z,0
2017-11-18T18:36:33.659Z,0
2017-11-18T18:46:33.118Z,0
2017-11-18T18:56:33.194Z,0
2017-11-18T19:06:33.105Z,0
2017-11-18T19:16:33.006Z,0
2017-11-18T19:26:32.952Z,0
2017-11-18T19:36:33.201Z,0
2017-11-18T19:46:34.365Z,0
2017-11-18T19:56:36.660Z,0
2017-11-18T20:06:33.798Z,0
2017-11-18T20:16:32.898Z,0
2017-11-18T20:26:34.055Z,0
2017-11-18T20:36:33.331Z,0
2017-11-18T20:46:33.388Z,0
2017-11-18T20:56:33.174Z,0
2017-11-18T21:06:32.934Z,0
2017-11-18T21:16:34.907Z,0
2017-11-18T21:26:32.891Z,0
2017-11-18T21:36:32.962Z,0
2017-11-18T21:46:33.046Z,0
2017-11-18T21:56:33.080Z,0
2017-11-18T22:06:32.871Z,0
2017-11-18T22:16:32.919Z,0
2017-11-18T22:26:32.802Z,0
2017-11-18T22:36:32.869Z,0
2017-11-18T22:46:32.919Z,0
2017-11-18T22:56:33.487Z,0
2017-11-18T23:06:33.864Z,0
2017-11-18T23:16:32.828Z,0
2017-11-18T23:26:32.900Z,0
2017-11-18T23:36:33.894Z,0
2017-11-18T23:46:32.931Z,0
2017-11-18T23:56:32.945Z,0
